sensor_id;sensor_type;location;lat;lon;timestamp;P1;durP1;ratioP1;P2;durP2;ratioP2
11675;SDS011;5894;42.768;23.404;2023-04-25T00:00:44;1.98;;;1.77;;
11675;SDS011;5894;42.768;23.404;2023-04-25T00:03:11;2.72;;;1.77;;
11675;SDS011;5894;42.768;23.404;2023-04-25T00:05:38;2.10;;;1.90;;
11675;SDS011;5894;42.768;23.404;2023-04-25T00:08:05;2.33;;;2.10;;
11675;SDS011;5894;42.768;23.404;2023-04-25T00:10:34;3.35;;;2.25;;
11675;SDS011;5894;42.768;23.404;2023-04-25T00:13:01;2.00;;;1.90;;
11675;SDS011;5894;42.768;23.404;2023-04-25T00:15:28;3.75;;;2.25;;
11675;SDS011;5894;42.768;23.404;2023-04-25T00:17:56;3.13;;;2.10;;
11675;SDS011;5894;42.768;23.404;2023-04-25T00:20:23;3.88;;;2.30;;
11675;SDS011;5894;42.768;23.404;2023-04-25T00:22:50;2.90;;;2.55;;
11675;SDS011;5894;42.768;23.404;2023-04-25T00:25:18;3.05;;;2.75;;
11675;SDS011;5894;42.768;23.404;2023-04-25T00:27:46;2.65;;;2.42;;
11675;SDS011;5894;42.768;23.404;2023-04-25T00:30:13;3.95;;;2.83;;
11675;SDS011;5894;42.768;23.404;2023-04-25T00:32:40;3.53;;;2.95;;
11675;SDS011;5894;42.768;23.404;2023-04-25T00:35:08;3.85;;;2.60;;
11675;SDS011;5894;42.768;23.404;2023-04-25T00:37:35;3.10;;;2.78;;
11675;SDS011;5894;42.768;23.404;2023-04-25T00:40:03;3.03;;;2.72;;
11675;SDS011;5894;42.768;23.404;2023-04-25T00:42:33;3.53;;;3.13;;
11675;SDS011;5894;42.768;23.404;2023-04-25T00:45:02;2.75;;;2.53;;
11675;SDS011;5894;42.768;23.404;2023-04-25T00:47:32;3.65;;;3.13;;
11675;SDS011;5894;42.768;23.404;2023-04-25T00:49:59;3.90;;;3.50;;
11675;SDS011;5894;42.768;23.404;2023-04-25T00:52:26;3.75;;;3.45;;
11675;SDS011;5894;42.768;23.404;2023-04-25T00:54:53;4.38;;;3.40;;
11675;SDS011;5894;42.768;23.404;2023-04-25T00:57:20;3.53;;;3.15;;
11675;SDS011;5894;42.768;23.404;2023-04-25T00:59:47;3.67;;;3.20;;
11675;SDS011;5894;42.768;23.404;2023-04-25T01:02:18;3.83;;;3.25;;
11675;SDS011;5894;42.768;23.404;2023-04-25T01:04:47;4.05;;;3.38;;
11675;SDS011;5894;42.768;23.404;2023-04-25T01:07:14;3.88;;;3.58;;
11675;SDS011;5894;42.768;23.404;2023-04-25T01:09:41;3.75;;;3.35;;
11675;SDS011;5894;42.768;23.404;2023-04-25T01:12:08;3.40;;;3.10;;
11675;SDS011;5894;42.768;23.404;2023-04-25T01:14:35;3.50;;;3.20;;
11675;SDS011;5894;42.768;23.404;2023-04-25T01:17:04;3.90;;;3.50;;
11675;SDS011;5894;42.768;23.404;2023-04-25T01:19:34;5.30;;;3.28;;
11675;SDS011;5894;42.768;23.404;2023-04-25T01:22:03;3.90;;;3.50;;
11675;SDS011;5894;42.768;23.404;2023-04-25T01:24:30;4.45;;;3.75;;
11675;SDS011;5894;42.768;23.404;2023-04-25T01:26:58;4.57;;;4.10;;
11675;SDS011;5894;42.768;23.404;2023-04-25T01:29:27;5.25;;;4.03;;
11675;SDS011;5894;42.768;23.404;2023-04-25T01:31:54;4.68;;;3.83;;
11675;SDS011;5894;42.768;23.404;2023-04-25T01:34:23;4.10;;;3.70;;
11675;SDS011;5894;42.768;23.404;2023-04-25T01:36:51;4.38;;;3.95;;
11675;SDS011;5894;42.768;23.404;2023-04-25T01:39:20;4.45;;;4.05;;
11675;SDS011;5894;42.768;23.404;2023-04-25T01:41:47;5.30;;;4.35;;
11675;SDS011;5894;42.768;23.404;2023-04-25T01:44:14;4.38;;;3.97;;
11675;SDS011;5894;42.768;23.404;2023-04-25T01:46:42;4.97;;;4.47;;
11675;SDS011;5894;42.768;23.404;2023-04-25T01:49:10;5.88;;;4.28;;
11675;SDS011;5894;42.768;23.404;2023-04-25T01:51:37;5.72;;;4.60;;
11675;SDS011;5894;42.768;23.404;2023-04-25T01:54:04;5.40;;;4.90;;
11675;SDS011;5894;42.768;23.404;2023-04-25T01:56:36;4.85;;;4.28;;
11675;SDS011;5894;42.768;23.404;2023-04-25T01:59:04;5.70;;;4.60;;
11675;SDS011;5894;42.768;23.404;2023-04-25T02:01:50;5.70;;;5.20;;
11675;SDS011;5894;42.768;23.404;2023-04-25T02:04:24;5.65;;;5.13;;
11675;SDS011;5894;42.768;23.404;2023-04-25T02:06:51;6.25;;;5.32;;
11675;SDS011;5894;42.768;23.404;2023-04-25T02:09:18;5.80;;;5.10;;
11675;SDS011;5894;42.768;23.404;2023-04-25T02:11:52;5.45;;;4.82;;
11675;SDS011;5894;42.768;23.404;2023-04-25T02:14:51;6.75;;;5.55;;
11675;SDS011;5894;42.768;23.404;2023-04-25T02:17:47;6.05;;;4.53;;
11675;SDS011;5894;42.768;23.404;2023-04-25T02:20:14;5.40;;;4.90;;
11675;SDS011;5894;42.768;23.404;2023-04-25T02:22:42;5.00;;;4.50;;
11675;SDS011;5894;42.768;23.404;2023-04-25T02:25:09;5.45;;;4.50;;
11675;SDS011;5894;42.768;23.404;2023-04-25T02:27:38;3.85;;;3.42;;
11675;SDS011;5894;42.768;23.404;2023-04-25T02:30:07;4.07;;;3.67;;
11675;SDS011;5894;42.768;23.404;2023-04-25T02:32:35;4.30;;;3.60;;
11675;SDS011;5894;42.768;23.404;2023-04-25T02:35:02;3.70;;;3.40;;
11675;SDS011;5894;42.768;23.404;2023-04-25T02:37:30;3.75;;;3.20;;
11675;SDS011;5894;42.768;23.404;2023-04-25T02:39:57;4.03;;;3.45;;
11675;SDS011;5894;42.768;23.404;2023-04-25T02:42:24;3.90;;;3.60;;
11675;SDS011;5894;42.768;23.404;2023-04-25T02:44:52;4.30;;;3.40;;
11675;SDS011;5894;42.768;23.404;2023-04-25T02:47:19;3.75;;;3.35;;
11675;SDS011;5894;42.768;23.404;2023-04-25T02:49:48;4.47;;;3.25;;
11675;SDS011;5894;42.768;23.404;2023-04-25T02:52:15;3.97;;;3.10;;
11675;SDS011;5894;42.768;23.404;2023-04-25T02:54:45;3.55;;;2.92;;
11675;SDS011;5894;42.768;23.404;2023-04-25T02:57:12;3.55;;;2.80;;
11675;SDS011;5894;42.768;23.404;2023-04-25T02:59:39;3.38;;;2.60;;
11675;SDS011;5894;42.768;23.404;2023-04-25T03:02:07;2.75;;;2.55;;
11675;SDS011;5894;42.768;23.404;2023-04-25T03:04:34;2.60;;;2.40;;
11675;SDS011;5894;42.768;23.404;2023-04-25T03:07:01;2.65;;;2.40;;
11675;SDS011;5894;42.768;23.404;2023-04-25T03:09:28;3.55;;;2.50;;
11675;SDS011;5894;42.768;23.404;2023-04-25T03:11:54;3.55;;;2.63;;
11675;SDS011;5894;42.768;23.404;2023-04-25T03:14:22;2.80;;;2.50;;
11675;SDS011;5894;42.768;23.404;2023-04-25T03:16:49;3.22;;;2.53;;
11675;SDS011;5894;42.768;23.404;2023-04-25T03:19:17;2.70;;;2.50;;
11675;SDS011;5894;42.768;23.404;2023-04-25T03:21:46;2.70;;;2.50;;
11675;SDS011;5894;42.768;23.404;2023-04-25T03:24:13;2.80;;;2.60;;
11675;SDS011;5894;42.768;23.404;2023-04-25T03:26:40;4.00;;;2.70;;
11675;SDS011;5894;42.768;23.404;2023-04-25T03:29:07;3.83;;;2.57;;
11675;SDS011;5894;42.768;23.404;2023-04-25T03:31:36;3.40;;;3.10;;
11675;SDS011;5894;42.768;23.404;2023-04-25T03:34:03;4.17;;;2.87;;
11675;SDS011;5894;42.768;23.404;2023-04-25T03:36:31;4.63;;;3.30;;
11675;SDS011;5894;42.768;23.404;2023-04-25T03:38:59;4.83;;;3.87;;
11675;SDS011;5894;42.768;23.404;2023-04-25T03:41:28;5.17;;;4.33;;
11675;SDS011;5894;42.768;23.404;2023-04-25T03:44:00;5.27;;;4.20;;
11675;SDS011;5894;42.768;23.404;2023-04-25T03:46:27;5.27;;;3.80;;
11675;SDS011;5894;42.768;23.404;2023-04-25T03:48:54;4.23;;;3.57;;
11675;SDS011;5894;42.768;23.404;2023-04-25T03:51:28;4.80;;;3.10;;
11675;SDS011;5894;42.768;23.404;2023-04-25T03:53:57;4.57;;;4.10;;
11675;SDS011;5894;42.768;23.404;2023-04-25T03:56:30;6.40;;;4.60;;
11675;SDS011;5894;42.768;23.404;2023-04-25T03:59:09;5.60;;;4.57;;
11675;SDS011;5894;42.768;23.404;2023-04-25T04:01:36;6.37;;;5.40;;
11675;SDS011;5894;42.768;23.404;2023-04-25T04:04:03;5.70;;;4.53;;
11675;SDS011;5894;42.768;23.404;2023-04-25T04:06:30;5.50;;;4.60;;
11675;SDS011;5894;42.768;23.404;2023-04-25T04:09:21;6.43;;;3.30;;
11675;SDS011;5894;42.768;23.404;2023-04-25T04:11:48;4.97;;;2.90;;
11675;SDS011;5894;42.768;23.404;2023-04-25T04:14:15;5.60;;;2.90;;
11675;SDS011;5894;42.768;23.404;2023-04-25T04:16:44;5.17;;;3.53;;
11675;SDS011;5894;42.768;23.404;2023-04-25T04:19:11;3.27;;;2.97;;
11675;SDS011;5894;42.768;23.404;2023-04-25T04:21:43;3.80;;;3.40;;
11675;SDS011;5894;42.768;23.404;2023-04-25T04:24:10;5.53;;;3.30;;
11675;SDS011;5894;42.768;23.404;2023-04-25T04:26:49;3.83;;;3.43;;
11675;SDS011;5894;42.768;23.404;2023-04-25T04:29:35;13.43;;;6.60;;
11675;SDS011;5894;42.768;23.404;2023-04-25T04:32:10;8.33;;;5.27;;
11675;SDS011;5894;42.768;23.404;2023-04-25T04:34:37;3.22;;;2.78;;
11675;SDS011;5894;42.768;23.404;2023-04-25T04:37:05;3.70;;;3.10;;
11675;SDS011;5894;42.768;23.404;2023-04-25T04:39:32;3.20;;;2.63;;
11675;SDS011;5894;42.768;23.404;2023-04-25T04:42:20;3.37;;;3.00;;
11675;SDS011;5894;42.768;23.404;2023-04-25T04:45:13;5.77;;;3.40;;
11675;SDS011;5894;42.768;23.404;2023-04-25T04:47:45;5.27;;;3.93;;
11675;SDS011;5894;42.768;23.404;2023-04-25T04:50:39;5.47;;;3.63;;
11675;SDS011;5894;42.768;23.404;2023-04-25T04:53:42;5.20;;;4.45;;
11675;SDS011;5894;42.768;23.404;2023-04-25T04:56:21;8.15;;;5.97;;
11675;SDS011;5894;42.768;23.404;2023-04-25T04:58:58;7.90;;;5.85;;
11675;SDS011;5894;42.768;23.404;2023-04-25T05:01:34;11.70;;;7.32;;
11675;SDS011;5894;42.768;23.404;2023-04-25T05:04:21;12.27;;;9.30;;
11675;SDS011;5894;42.768;23.404;2023-04-25T05:07:02;10.05;;;8.90;;
11675;SDS011;5894;42.768;23.404;2023-04-25T05:09:47;10.38;;;9.27;;
11675;SDS011;5894;42.768;23.404;2023-04-25T05:12:34;7.63;;;6.78;;
11675;SDS011;5894;42.768;23.404;2023-04-25T05:15:34;7.60;;;6.28;;
11675;SDS011;5894;42.768;23.404;2023-04-25T05:18:04;6.75;;;5.30;;
11675;SDS011;5894;42.768;23.404;2023-04-25T05:20:59;4.88;;;4.38;;
11675;SDS011;5894;42.768;23.404;2023-04-25T05:23:37;4.40;;;4.00;;
11675;SDS011;5894;42.768;23.404;2023-04-25T05:26:23;4.70;;;3.72;;
11675;SDS011;5894;42.768;23.404;2023-04-25T05:29:02;4.22;;;3.83;;
11675;SDS011;5894;42.768;23.404;2023-04-25T05:31:50;5.82;;;3.90;;
11675;SDS011;5894;42.768;23.404;2023-04-25T05:34:17;7.32;;;3.95;;
11675;SDS011;5894;42.768;23.404;2023-04-25T05:37:00;5.55;;;4.07;;
11675;SDS011;5894;42.768;23.404;2023-04-25T05:39:28;5.93;;;4.00;;
11675;SDS011;5894;42.768;23.404;2023-04-25T05:42:25;11.63;;;8.50;;
11675;SDS011;5894;42.768;23.404;2023-04-25T05:45:10;23.08;;;15.75;;
11675;SDS011;5894;42.768;23.404;2023-04-25T05:48:06;17.08;;;13.50;;
11675;SDS011;5894;42.768;23.404;2023-04-25T05:50:52;11.93;;;8.20;;
11675;SDS011;5894;42.768;23.404;2023-04-25T05:53:38;8.90;;;7.82;;
11675;SDS011;5894;42.768;23.404;2023-04-25T05:56:05;9.52;;;8.00;;
11675;SDS011;5894;42.768;23.404;2023-04-25T05:58:32;8.32;;;7.28;;
11675;SDS011;5894;42.768;23.404;2023-04-25T06:01:00;11.40;;;8.48;;
11675;SDS011;5894;42.768;23.404;2023-04-25T06:03:29;10.73;;;8.65;;
11675;SDS011;5894;42.768;23.404;2023-04-25T06:05:57;11.98;;;9.20;;
11675;SDS011;5894;42.768;23.404;2023-04-25T06:08:25;9.50;;;8.48;;
11675;SDS011;5894;42.768;23.404;2023-04-25T06:10:52;10.77;;;8.73;;
11675;SDS011;5894;42.768;23.404;2023-04-25T06:13:19;10.15;;;8.55;;
11675;SDS011;5894;42.768;23.404;2023-04-25T06:15:45;8.48;;;6.53;;
11675;SDS011;5894;42.768;23.404;2023-04-25T06:18:12;7.97;;;6.80;;
11675;SDS011;5894;42.768;23.404;2023-04-25T06:20:40;8.15;;;6.68;;
11675;SDS011;5894;42.768;23.404;2023-04-25T06:23:07;6.90;;;6.10;;
11675;SDS011;5894;42.768;23.404;2023-04-25T06:26:00;8.82;;;7.10;;
11675;SDS011;5894;42.768;23.404;2023-04-25T06:28:28;7.30;;;6.43;;
11675;SDS011;5894;42.768;23.404;2023-04-25T06:30:55;21.15;;;12.65;;
11675;SDS011;5894;42.768;23.404;2023-04-25T06:33:22;18.52;;;12.50;;
11675;SDS011;5894;42.768;23.404;2023-04-25T06:35:52;15.77;;;11.05;;
11675;SDS011;5894;42.768;23.404;2023-04-25T06:38:23;9.88;;;7.57;;
11675;SDS011;5894;42.768;23.404;2023-04-25T06:40:51;8.52;;;6.93;;
11675;SDS011;5894;42.768;23.404;2023-04-25T06:43:18;10.43;;;7.35;;
11675;SDS011;5894;42.768;23.404;2023-04-25T06:46:17;10.07;;;7.15;;
11675;SDS011;5894;42.768;23.404;2023-04-25T06:48:46;8.52;;;7.32;;
11675;SDS011;5894;42.768;23.404;2023-04-25T06:51:14;6.20;;;5.60;;
11675;SDS011;5894;42.768;23.404;2023-04-25T06:53:43;8.27;;;6.00;;
11675;SDS011;5894;42.768;23.404;2023-04-25T06:56:18;7.65;;;6.32;;
11675;SDS011;5894;42.768;23.404;2023-04-25T06:59:00;6.88;;;5.80;;
11675;SDS011;5894;42.768;23.404;2023-04-25T07:01:38;10.07;;;7.03;;
11675;SDS011;5894;42.768;23.404;2023-04-25T07:04:10;10.57;;;7.25;;
11675;SDS011;5894;42.768;23.404;2023-04-25T07:06:44;10.93;;;7.10;;
11675;SDS011;5894;42.768;23.404;2023-04-25T07:09:14;10.73;;;7.60;;
11675;SDS011;5894;42.768;23.404;2023-04-25T07:11:44;8.98;;;6.95;;
11675;SDS011;5894;42.768;23.404;2023-04-25T07:14:11;8.55;;;7.18;;
11675;SDS011;5894;42.768;23.404;2023-04-25T07:16:39;8.40;;;5.50;;
11675;SDS011;5894;42.768;23.404;2023-04-25T07:19:07;7.57;;;5.57;;
11675;SDS011;5894;42.768;23.404;2023-04-25T07:21:34;6.43;;;5.32;;
11675;SDS011;5894;42.768;23.404;2023-04-25T07:24:04;6.63;;;4.72;;
11675;SDS011;5894;42.768;23.404;2023-04-25T07:26:36;5.43;;;4.60;;
11675;SDS011;5894;42.768;23.404;2023-04-25T07:29:26;5.47;;;4.97;;
11675;SDS011;5894;42.768;23.404;2023-04-25T07:31:52;7.55;;;5.20;;
11675;SDS011;5894;42.768;23.404;2023-04-25T07:34:21;7.20;;;5.25;;
11675;SDS011;5894;42.768;23.404;2023-04-25T07:36:48;6.00;;;4.97;;
11675;SDS011;5894;42.768;23.404;2023-04-25T07:39:16;5.88;;;4.65;;
11675;SDS011;5894;42.768;23.404;2023-04-25T07:41:43;5.85;;;4.55;;
11675;SDS011;5894;42.768;23.404;2023-04-25T07:44:16;4.15;;;3.75;;
11675;SDS011;5894;42.768;23.404;2023-04-25T07:46:43;27.60;;;20.23;;
11675;SDS011;5894;42.768;23.404;2023-04-25T07:49:10;32.90;;;23.70;;
11675;SDS011;5894;42.768;23.404;2023-04-25T07:51:39;26.73;;;18.88;;
11675;SDS011;5894;42.768;23.404;2023-04-25T07:54:09;8.25;;;7.22;;
11675;SDS011;5894;42.768;23.404;2023-04-25T07:56:45;6.15;;;5.50;;
11675;SDS011;5894;42.768;23.404;2023-04-25T07:59:12;9.68;;;6.88;;
11675;SDS011;5894;42.768;23.404;2023-04-25T08:01:41;5.80;;;4.80;;
11675;SDS011;5894;42.768;23.404;2023-04-25T08:04:10;6.03;;;4.80;;
11675;SDS011;5894;42.768;23.404;2023-04-25T08:06:53;5.40;;;4.82;;
11675;SDS011;5894;42.768;23.404;2023-04-25T08:09:27;5.60;;;4.63;;
11675;SDS011;5894;42.768;23.404;2023-04-25T08:11:56;9.65;;;4.97;;
11675;SDS011;5894;42.768;23.404;2023-04-25T08:14:27;6.38;;;5.28;;
11675;SDS011;5894;42.768;23.404;2023-04-25T08:17:00;5.70;;;5.15;;
11675;SDS011;5894;42.768;23.404;2023-04-25T08:19:28;6.95;;;5.43;;
11675;SDS011;5894;42.768;23.404;2023-04-25T08:21:55;8.43;;;5.35;;
11675;SDS011;5894;42.768;23.404;2023-04-25T08:24:28;7.15;;;5.68;;
11675;SDS011;5894;42.768;23.404;2023-04-25T08:26:56;10.07;;;6.00;;
11675;SDS011;5894;42.768;23.404;2023-04-25T08:29:26;10.27;;;6.30;;
11675;SDS011;5894;42.768;23.404;2023-04-25T08:31:53;8.02;;;5.82;;
11675;SDS011;5894;42.768;23.404;2023-04-25T08:34:21;6.95;;;5.88;;
11675;SDS011;5894;42.768;23.404;2023-04-25T08:36:48;9.00;;;5.57;;
11675;SDS011;5894;42.768;23.404;2023-04-25T08:39:21;6.88;;;5.30;;
11675;SDS011;5894;42.768;23.404;2023-04-25T08:42:09;7.40;;;4.90;;
11675;SDS011;5894;42.768;23.404;2023-04-25T08:44:38;6.35;;;5.18;;
11675;SDS011;5894;42.768;23.404;2023-04-25T08:47:05;8.75;;;7.85;;
11675;SDS011;5894;42.768;23.404;2023-04-25T08:49:39;8.48;;;7.13;;
11675;SDS011;5894;42.768;23.404;2023-04-25T08:52:11;14.15;;;9.48;;
11675;SDS011;5894;42.768;23.404;2023-04-25T08:54:42;9.07;;;7.30;;
11675;SDS011;5894;42.768;23.404;2023-04-25T08:57:12;8.38;;;6.90;;
11675;SDS011;5894;42.768;23.404;2023-04-25T08:59:39;8.90;;;7.50;;
11675;SDS011;5894;42.768;23.404;2023-04-25T09:02:10;12.32;;;8.55;;
11675;SDS011;5894;42.768;23.404;2023-04-25T09:04:40;12.25;;;9.85;;
11675;SDS011;5894;42.768;23.404;2023-04-25T09:07:07;13.60;;;11.48;;
11675;SDS011;5894;42.768;23.404;2023-04-25T09:09:35;6.28;;;5.68;;
11675;SDS011;5894;42.768;23.404;2023-04-25T09:12:01;4.40;;;3.80;;
11675;SDS011;5894;42.768;23.404;2023-04-25T09:14:30;5.32;;;4.13;;
11675;SDS011;5894;42.768;23.404;2023-04-25T09:17:14;5.32;;;4.28;;
11675;SDS011;5894;42.768;23.404;2023-04-25T09:19:43;4.65;;;4.10;;
11675;SDS011;5894;42.768;23.404;2023-04-25T09:22:26;3.60;;;3.30;;
11675;SDS011;5894;42.768;23.404;2023-04-25T09:24:53;4.93;;;3.42;;
11675;SDS011;5894;42.768;23.404;2023-04-25T09:27:24;6.07;;;3.92;;
11675;SDS011;5894;42.768;23.404;2023-04-25T09:30:03;4.22;;;3.72;;
11675;SDS011;5894;42.768;23.404;2023-04-25T09:32:55;3.92;;;2.92;;
11675;SDS011;5894;42.768;23.404;2023-04-25T09:35:23;4.35;;;3.33;;
11675;SDS011;5894;42.768;23.404;2023-04-25T09:37:51;3.90;;;2.80;;
11675;SDS011;5894;42.768;23.404;2023-04-25T09:40:40;3.47;;;3.17;;
11675;SDS011;5894;42.768;23.404;2023-04-25T09:43:19;3.78;;;3.40;;
11675;SDS011;5894;42.768;23.404;2023-04-25T09:45:50;3.72;;;2.83;;
11675;SDS011;5894;42.768;23.404;2023-04-25T09:48:18;7.65;;;3.13;;
11675;SDS011;5894;42.768;23.404;2023-04-25T09:50:51;7.97;;;2.78;;
11675;SDS011;5894;42.768;23.404;2023-04-25T09:53:30;3.53;;;2.20;;
11675;SDS011;5894;42.768;23.404;2023-04-25T09:56:08;4.28;;;2.67;;
11675;SDS011;5894;42.768;23.404;2023-04-25T09:58:36;5.30;;;3.20;;
11675;SDS011;5894;42.768;23.404;2023-04-25T10:01:07;7.35;;;3.08;;
11675;SDS011;5894;42.768;23.404;2023-04-25T10:03:47;2.80;;;2.50;;
11675;SDS011;5894;42.768;23.404;2023-04-25T10:06:33;3.65;;;2.30;;
11675;SDS011;5894;42.768;23.404;2023-04-25T10:09:01;3.47;;;1.90;;
11675;SDS011;5894;42.768;23.404;2023-04-25T10:11:29;2.78;;;2.08;;
11675;SDS011;5894;42.768;23.404;2023-04-25T10:13:58;3.10;;;1.98;;
11675;SDS011;5894;42.768;23.404;2023-04-25T10:16:27;2.33;;;2.03;;
11675;SDS011;5894;42.768;23.404;2023-04-25T10:18:55;2.53;;;1.75;;
11675;SDS011;5894;42.768;23.404;2023-04-25T10:21:22;2.05;;;1.85;;
11675;SDS011;5894;42.768;23.404;2023-04-25T10:23:52;2.45;;;2.08;;
11675;SDS011;5894;42.768;23.404;2023-04-25T10:26:20;2.10;;;1.90;;
11675;SDS011;5894;42.768;23.404;2023-04-25T10:28:57;1.95;;;1.75;;
11675;SDS011;5894;42.768;23.404;2023-04-25T10:31:24;3.28;;;2.30;;
11675;SDS011;5894;42.768;23.404;2023-04-25T10:33:53;3.55;;;1.80;;
11675;SDS011;5894;42.768;23.404;2023-04-25T10:36:20;6.95;;;1.77;;
11675;SDS011;5894;42.768;23.404;2023-04-25T10:38:49;4.63;;;1.70;;
11675;SDS011;5894;42.768;23.404;2023-04-25T10:41:17;2.75;;;1.30;;
11675;SDS011;5894;42.768;23.404;2023-04-25T10:43:45;2.53;;;1.40;;
11675;SDS011;5894;42.768;23.404;2023-04-25T10:46:13;1.38;;;1.15;;
11675;SDS011;5894;42.768;23.404;2023-04-25T10:48:45;1.75;;;1.00;;
11675;SDS011;5894;42.768;23.404;2023-04-25T10:51:18;2.63;;;1.10;;
11675;SDS011;5894;42.768;23.404;2023-04-25T10:53:46;1.50;;;1.30;;
11675;SDS011;5894;42.768;23.404;2023-04-25T10:56:22;3.70;;;1.40;;
11675;SDS011;5894;42.768;23.404;2023-04-25T10:58:52;1.50;;;1.23;;
11675;SDS011;5894;42.768;23.404;2023-04-25T11:01:35;2.95;;;1.35;;
11675;SDS011;5894;42.768;23.404;2023-04-25T11:04:04;1.17;;;1.00;;
11675;SDS011;5894;42.768;23.404;2023-04-25T11:06:34;2.10;;;1.80;;
11675;SDS011;5894;42.768;23.404;2023-04-25T11:09:13;2.85;;;1.30;;
11675;SDS011;5894;42.768;23.404;2023-04-25T11:11:39;2.55;;;1.77;;
11675;SDS011;5894;42.768;23.404;2023-04-25T11:14:06;1.40;;;1.30;;
11675;SDS011;5894;42.768;23.404;2023-04-25T11:16:33;2.85;;;1.58;;
11675;SDS011;5894;42.768;23.404;2023-04-25T11:19:01;2.80;;;2.10;;
11675;SDS011;5894;42.768;23.404;2023-04-25T11:21:28;1.85;;;1.23;;
11675;SDS011;5894;42.768;23.404;2023-04-25T11:23:58;1.20;;;1.02;;
11675;SDS011;5894;42.768;23.404;2023-04-25T11:26:26;2.20;;;1.92;;
11675;SDS011;5894;42.768;23.404;2023-04-25T11:28:56;4.38;;;2.08;;
11675;SDS011;5894;42.768;23.404;2023-04-25T11:31:24;1.75;;;1.55;;
11675;SDS011;5894;42.768;23.404;2023-04-25T11:33:52;2.20;;;1.40;;
11675;SDS011;5894;42.768;23.404;2023-04-25T11:36:19;1.40;;;1.20;;
11675;SDS011;5894;42.768;23.404;2023-04-25T11:38:46;1.15;;;1.02;;
11675;SDS011;5894;42.768;23.404;2023-04-25T11:41:15;1.40;;;1.10;;
11675;SDS011;5894;42.768;23.404;2023-04-25T11:43:42;1.10;;;1.00;;
11675;SDS011;5894;42.768;23.404;2023-04-25T11:46:09;1.27;;;1.05;;
11675;SDS011;5894;42.768;23.404;2023-04-25T11:48:36;0.80;;;0.80;;
11675;SDS011;5894;42.768;23.404;2023-04-25T11:51:04;1.65;;;0.90;;
11675;SDS011;5894;42.768;23.404;2023-04-25T11:53:31;0.80;;;0.75;;
11675;SDS011;5894;42.768;23.404;2023-04-25T11:55:58;1.15;;;0.90;;
11675;SDS011;5894;42.768;23.404;2023-04-25T11:58:26;1.70;;;1.00;;
11675;SDS011;5894;42.768;23.404;2023-04-25T12:00:53;1.13;;;0.80;;
11675;SDS011;5894;42.768;23.404;2023-04-25T12:03:23;2.03;;;1.30;;
11675;SDS011;5894;42.768;23.404;2023-04-25T12:05:52;5.18;;;3.88;;
11675;SDS011;5894;42.768;23.404;2023-04-25T12:08:19;2.60;;;1.73;;
11675;SDS011;5894;42.768;23.404;2023-04-25T12:10:46;1.92;;;1.70;;
11675;SDS011;5894;42.768;23.404;2023-04-25T12:13:20;2.45;;;1.42;;
11675;SDS011;5894;42.768;23.404;2023-04-25T12:15:49;2.30;;;1.52;;
11675;SDS011;5894;42.768;23.404;2023-04-25T12:18:18;2.95;;;1.02;;
11675;SDS011;5894;42.768;23.404;2023-04-25T12:20:45;4.47;;;1.30;;
11675;SDS011;5894;42.768;23.404;2023-04-25T12:23:12;2.47;;;1.30;;
11675;SDS011;5894;42.768;23.404;2023-04-25T12:25:39;3.97;;;1.50;;
11675;SDS011;5894;42.768;23.404;2023-04-25T12:28:11;3.25;;;1.90;;
11675;SDS011;5894;42.768;23.404;2023-04-25T12:33:28;1.48;;;1.10;;
11675;SDS011;5894;42.768;23.404;2023-04-25T12:35:55;2.30;;;1.20;;
11675;SDS011;5894;42.768;23.404;2023-04-25T12:38:23;11.77;;;2.40;;
11675;SDS011;5894;42.768;23.404;2023-04-25T12:40:51;20.20;;;3.20;;
11675;SDS011;5894;42.768;23.404;2023-04-25T12:43:19;3.47;;;1.42;;
11675;SDS011;5894;42.768;23.404;2023-04-25T12:45:47;4.18;;;1.92;;
11675;SDS011;5894;42.768;23.404;2023-04-25T12:48:16;4.70;;;1.40;;
11675;SDS011;5894;42.768;23.404;2023-04-25T12:50:43;4.63;;;1.50;;
11675;SDS011;5894;42.768;23.404;2023-04-25T12:53:13;3.20;;;1.40;;
11675;SDS011;5894;42.768;23.404;2023-04-25T12:55:39;2.55;;;1.50;;
11675;SDS011;5894;42.768;23.404;2023-04-25T12:58:06;3.83;;;1.80;;
11675;SDS011;5894;42.768;23.404;2023-04-25T13:00:33;2.83;;;2.05;;
11675;SDS011;5894;42.768;23.404;2023-04-25T13:03:01;3.22;;;1.80;;
11675;SDS011;5894;42.768;23.404;2023-04-25T13:05:29;1.58;;;1.40;;
11675;SDS011;5894;42.768;23.404;2023-04-25T13:07:56;2.80;;;1.27;;
11675;SDS011;5894;42.768;23.404;2023-04-25T13:10:22;2.22;;;1.35;;
11675;SDS011;5894;42.768;23.404;2023-04-25T13:12:49;1.52;;;1.30;;
11675;SDS011;5894;42.768;23.404;2023-04-25T13:15:16;1.42;;;1.33;;
11675;SDS011;5894;42.768;23.404;2023-04-25T13:17:43;1.52;;;1.42;;
11675;SDS011;5894;42.768;23.404;2023-04-25T13:20:10;1.40;;;1.30;;
11675;SDS011;5894;42.768;23.404;2023-04-25T13:22:39;1.60;;;0.93;;
11675;SDS011;5894;42.768;23.404;2023-04-25T13:25:06;1.48;;;1.00;;
11675;SDS011;5894;42.768;23.404;2023-04-25T13:27:34;1.33;;;0.90;;
11675;SDS011;5894;42.768;23.404;2023-04-25T13:30:03;1.00;;;1.00;;
11675;SDS011;5894;42.768;23.404;2023-04-25T13:32:32;1.42;;;1.10;;
11675;SDS011;5894;42.768;23.404;2023-04-25T13:35:01;1.02;;;1.00;;
11675;SDS011;5894;42.768;23.404;2023-04-25T13:37:29;1.67;;;0.98;;
11675;SDS011;5894;42.768;23.404;2023-04-25T13:39:59;1.10;;;1.02;;
11675;SDS011;5894;42.768;23.404;2023-04-25T13:42:29;1.80;;;1.17;;
11675;SDS011;5894;42.768;23.404;2023-04-25T13:44:55;2.80;;;1.20;;
11675;SDS011;5894;42.768;23.404;2023-04-25T13:47:22;1.50;;;1.40;;
11675;SDS011;5894;42.768;23.404;2023-04-25T13:49:49;2.50;;;1.95;;
11675;SDS011;5894;42.768;23.404;2023-04-25T13:52:16;4.38;;;2.70;;
11675;SDS011;5894;42.768;23.404;2023-04-25T13:54:43;4.75;;;2.83;;
11675;SDS011;5894;42.768;23.404;2023-04-25T13:57:11;2.50;;;2.30;;
11675;SDS011;5894;42.768;23.404;2023-04-25T13:59:38;5.70;;;3.00;;
11675;SDS011;5894;42.768;23.404;2023-04-25T14:02:06;5.15;;;3.05;;
11675;SDS011;5894;42.768;23.404;2023-04-25T14:04:33;3.95;;;3.17;;
11675;SDS011;5894;42.768;23.404;2023-04-25T14:07:00;4.47;;;3.17;;
11675;SDS011;5894;42.768;23.404;2023-04-25T14:09:28;4.90;;;3.47;;
11675;SDS011;5894;42.768;23.404;2023-04-25T14:11:55;6.50;;;3.90;;
11675;SDS011;5894;42.768;23.404;2023-04-25T14:14:23;5.68;;;3.88;;
11675;SDS011;5894;42.768;23.404;2023-04-25T14:16:50;4.40;;;3.60;;
11675;SDS011;5894;42.768;23.404;2023-04-25T14:19:19;5.18;;;3.50;;
11675;SDS011;5894;42.768;23.404;2023-04-25T14:21:46;4.75;;;3.17;;
11675;SDS011;5894;42.768;23.404;2023-04-25T14:24:13;4.40;;;3.03;;
11675;SDS011;5894;42.768;23.404;2023-04-25T14:26:41;2.90;;;2.38;;
11675;SDS011;5894;42.768;23.404;2023-04-25T14:29:09;3.63;;;1.98;;
11675;SDS011;5894;42.768;23.404;2023-04-25T14:31:38;3.75;;;2.03;;
11675;SDS011;5894;42.768;23.404;2023-04-25T14:34:06;3.28;;;2.00;;
11675;SDS011;5894;42.768;23.404;2023-04-25T14:36:33;2.17;;;1.95;;
11675;SDS011;5894;42.768;23.404;2023-04-25T14:39:00;8.32;;;1.90;;
11675;SDS011;5894;42.768;23.404;2023-04-25T14:41:27;3.33;;;2.30;;
11675;SDS011;5894;42.768;23.404;2023-04-25T14:43:54;5.40;;;2.90;;
11675;SDS011;5894;42.768;23.404;2023-04-25T14:46:22;5.10;;;3.78;;
11675;SDS011;5894;42.768;23.404;2023-04-25T14:48:50;5.72;;;3.60;;
11675;SDS011;5894;42.768;23.404;2023-04-25T14:51:17;4.80;;;3.90;;
11675;SDS011;5894;42.768;23.404;2023-04-25T14:53:44;5.72;;;4.57;;
11675;SDS011;5894;42.768;23.404;2023-04-25T14:56:11;5.32;;;4.47;;
11675;SDS011;5894;42.768;23.404;2023-04-25T14:58:39;6.15;;;4.80;;
11675;SDS011;5894;42.768;23.404;2023-04-25T15:01:06;4.90;;;3.28;;
11675;SDS011;5894;42.768;23.404;2023-04-25T15:03:33;3.45;;;3.00;;
11675;SDS011;5894;42.768;23.404;2023-04-25T15:06:01;2.90;;;2.15;;
11675;SDS011;5894;42.768;23.404;2023-04-25T15:08:28;3.15;;;2.50;;